sensor_id;sensor_type;location;lat;lon;timestamp;P1;durP1;ratioP1;P2;durP2;ratioP2
59189;SDS011;50749;51.636;4.948;2022-08-19T00:01:54;9.73;;;5.05;;
59189;SDS011;50749;51.636;4.948;2022-08-19T00:04:21;11.82;;;5.18;;
59189;SDS011;50749;51.636;4.948;2022-08-19T00:06:54;10.20;;;5.20;;
59189;SDS011;50749;51.636;4.948;2022-08-19T00:09:21;10.63;;;5.47;;
59189;SDS011;50749;51.636;4.948;2022-08-19T00:11:47;15.75;;;5.00;;
59189;SDS011;50749;51.636;4.948;2022-08-19T00:14:15;12.63;;;5.28;;
59189;SDS011;50749;51.636;4.948;2022-08-19T00:16:42;8.55;;;4.80;;
59189;SDS011;50749;51.636;4.948;2022-08-19T00:19:09;10.20;;;4.85;;
59189;SDS011;50749;51.636;4.948;2022-08-19T00:21:35;9.98;;;5.60;;
59189;SDS011;50749;51.636;4.948;2022-08-19T00:24:05;12.65;;;4.65;;
59189;SDS011;50749;51.636;4.948;2022-08-19T00:26:35;10.88;;;4.88;;
59189;SDS011;50749;51.636;4.948;2022-08-19T00:29:02;8.15;;;4.65;;
59189;SDS011;50749;51.636;4.948;2022-08-19T00:31:29;8.40;;;4.85;;
59189;SDS011;50749;51.636;4.948;2022-08-19T00:33:56;8.40;;;4.63;;
59189;SDS011;50749;51.636;4.948;2022-08-19T00:36:22;8.30;;;4.75;;
59189;SDS011;50749;51.636;4.948;2022-08-19T00:38:48;7.60;;;4.97;;
59189;SDS011;50749;51.636;4.948;2022-08-19T00:41:17;7.07;;;4.05;;
59189;SDS011;50749;51.636;4.948;2022-08-19T00:44:00;9.73;;;4.78;;
59189;SDS011;50749;51.636;4.948;2022-08-19T00:46:28;9.48;;;5.03;;
59189;SDS011;50749;51.636;4.948;2022-08-19T00:48:58;8.75;;;4.82;;
59189;SDS011;50749;51.636;4.948;2022-08-19T00:51:25;9.75;;;4.70;;
59189;SDS011;50749;51.636;4.948;2022-08-19T00:53:55;10.43;;;4.80;;
59189;SDS011;50749;51.636;4.948;2022-08-19T00:56:23;7.70;;;4.40;;
59189;SDS011;50749;51.636;4.948;2022-08-19T00:58:52;11.00;;;5.15;;
59189;SDS011;50749;51.636;4.948;2022-08-19T01:01:21;8.57;;;4.25;;
59189;SDS011;50749;51.636;4.948;2022-08-19T01:03:47;8.40;;;4.65;;
59189;SDS011;50749;51.636;4.948;2022-08-19T01:06:13;9.18;;;4.10;;
59189;SDS011;50749;51.636;4.948;2022-08-19T01:08:39;9.55;;;5.15;;
59189;SDS011;50749;51.636;4.948;2022-08-19T01:11:05;10.05;;;4.57;;
59189;SDS011;50749;51.636;4.948;2022-08-19T01:13:33;10.60;;;4.82;;
59189;SDS011;50749;51.636;4.948;2022-08-19T01:16:04;7.32;;;4.03;;
59189;SDS011;50749;51.636;4.948;2022-08-19T01:18:35;7.25;;;3.75;;
59189;SDS011;50749;51.636;4.948;2022-08-19T01:21:10;8.70;;;4.35;;
59189;SDS011;50749;51.636;4.948;2022-08-19T01:23:42;6.75;;;4.43;;
59189;SDS011;50749;51.636;4.948;2022-08-19T01:26:14;7.97;;;4.03;;
59189;SDS011;50749;51.636;4.948;2022-08-19T01:28:42;9.15;;;4.63;;
59189;SDS011;50749;51.636;4.948;2022-08-19T01:31:14;7.00;;;3.90;;
59189;SDS011;50749;51.636;4.948;2022-08-19T01:33:43;7.30;;;4.30;;
59189;SDS011;50749;51.636;4.948;2022-08-19T01:36:23;6.65;;;3.92;;
59189;SDS011;50749;51.636;4.948;2022-08-19T01:41:19;8.32;;;3.97;;
59189;SDS011;50749;51.636;4.948;2022-08-19T01:43:46;8.32;;;4.30;;
59189;SDS011;50749;51.636;4.948;2022-08-19T01:46:12;6.93;;;3.63;;
59189;SDS011;50749;51.636;4.948;2022-08-19T01:48:38;6.18;;;3.67;;
59189;SDS011;50749;51.636;4.948;2022-08-19T01:51:06;7.43;;;4.65;;
59189;SDS011;50749;51.636;4.948;2022-08-19T01:53:33;8.57;;;4.35;;
59189;SDS011;50749;51.636;4.948;2022-08-19T01:55:59;7.88;;;5.00;;
59189;SDS011;50749;51.636;4.948;2022-08-19T01:58:32;8.77;;;4.78;;
59189;SDS011;50749;51.636;4.948;2022-08-19T02:01:03;7.15;;;3.88;;
59189;SDS011;50749;51.636;4.948;2022-08-19T02:03:29;9.23;;;4.55;;
59189;SDS011;50749;51.636;4.948;2022-08-19T02:05:58;6.95;;;3.67;;
59189;SDS011;50749;51.636;4.948;2022-08-19T02:08:26;5.85;;;3.50;;
59189;SDS011;50749;51.636;4.948;2022-08-19T02:10:52;7.70;;;3.80;;
59189;SDS011;50749;51.636;4.948;2022-08-19T02:13:18;7.68;;;3.58;;
59189;SDS011;50749;51.636;4.948;2022-08-19T02:15:45;6.85;;;3.80;;
59189;SDS011;50749;51.636;4.948;2022-08-19T02:18:10;5.60;;;3.30;;
59189;SDS011;50749;51.636;4.948;2022-08-19T02:20:37;6.82;;;3.78;;
59189;SDS011;50749;51.636;4.948;2022-08-19T02:23:04;6.15;;;3.78;;
59189;SDS011;50749;51.636;4.948;2022-08-19T02:25:30;7.22;;;4.32;;
59189;SDS011;50749;51.636;4.948;2022-08-19T02:27:56;7.07;;;3.65;;
59189;SDS011;50749;51.636;4.948;2022-08-19T02:30:22;5.90;;;3.58;;
59189;SDS011;50749;51.636;4.948;2022-08-19T02:32:49;7.22;;;3.58;;
59189;SDS011;50749;51.636;4.948;2022-08-19T02:35:16;7.00;;;3.97;;
59189;SDS011;50749;51.636;4.948;2022-08-19T02:37:42;6.45;;;3.85;;
59189;SDS011;50749;51.636;4.948;2022-08-19T02:40:28;5.97;;;3.70;;
59189;SDS011;50749;51.636;4.948;2022-08-19T02:42:55;5.97;;;3.65;;
59189;SDS011;50749;51.636;4.948;2022-08-19T02:45:21;8.43;;;3.83;;
59189;SDS011;50749;51.636;4.948;2022-08-19T02:47:47;6.78;;;3.53;;
59189;SDS011;50749;51.636;4.948;2022-08-19T02:50:13;5.88;;;3.85;;
59189;SDS011;50749;51.636;4.948;2022-08-19T02:52:39;7.47;;;3.80;;
59189;SDS011;50749;51.636;4.948;2022-08-19T02:55:05;5.85;;;3.60;;
59189;SDS011;50749;51.636;4.948;2022-08-19T02:57:32;6.45;;;3.80;;
59189;SDS011;50749;51.636;4.948;2022-08-19T02:59:58;5.05;;;3.42;;
59189;SDS011;50749;51.636;4.948;2022-08-19T03:02:24;7.93;;;3.83;;
59189;SDS011;50749;51.636;4.948;2022-08-19T03:04:50;5.97;;;3.53;;
59189;SDS011;50749;51.636;4.948;2022-08-19T03:07:16;7.25;;;3.67;;
59189;SDS011;50749;51.636;4.948;2022-08-19T03:09:43;7.70;;;3.47;;
59189;SDS011;50749;51.636;4.948;2022-08-19T03:12:09;6.55;;;4.00;;
59189;SDS011;50749;51.636;4.948;2022-08-19T03:14:35;6.05;;;3.45;;
59189;SDS011;50749;51.636;4.948;2022-08-19T03:17:03;5.28;;;3.40;;
59189;SDS011;50749;51.636;4.948;2022-08-19T03:19:29;6.68;;;3.53;;
59189;SDS011;50749;51.636;4.948;2022-08-19T03:21:56;5.03;;;3.25;;
59189;SDS011;50749;51.636;4.948;2022-08-19T03:24:23;6.75;;;3.95;;
59189;SDS011;50749;51.636;4.948;2022-08-19T03:26:50;5.72;;;3.92;;
59189;SDS011;50749;51.636;4.948;2022-08-19T03:29:18;6.40;;;3.65;;
59189;SDS011;50749;51.636;4.948;2022-08-19T03:31:44;5.85;;;3.35;;
59189;SDS011;50749;51.636;4.948;2022-08-19T03:34:15;5.90;;;3.40;;
59189;SDS011;50749;51.636;4.948;2022-08-19T03:36:45;7.03;;;3.75;;
59189;SDS011;50749;51.636;4.948;2022-08-19T03:39:12;6.53;;;3.65;;
59189;SDS011;50749;51.636;4.948;2022-08-19T03:41:40;4.45;;;3.00;;
59189;SDS011;50749;51.636;4.948;2022-08-19T03:44:07;6.70;;;4.25;;
59189;SDS011;50749;51.636;4.948;2022-08-19T03:46:34;5.82;;;3.50;;
59189;SDS011;50749;51.636;4.948;2022-08-19T03:49:02;6.07;;;3.70;;
59189;SDS011;50749;51.636;4.948;2022-08-19T03:51:36;7.25;;;4.00;;
59189;SDS011;50749;51.636;4.948;2022-08-19T03:54:07;5.95;;;3.47;;
59189;SDS011;50749;51.636;4.948;2022-08-19T03:56:36;4.32;;;2.92;;
59189;SDS011;50749;51.636;4.948;2022-08-19T03:59:04;4.30;;;3.22;;
59189;SDS011;50749;51.636;4.948;2022-08-19T04:01:31;6.85;;;3.10;;
59189;SDS011;50749;51.636;4.948;2022-08-19T04:03:57;4.88;;;3.40;;
59189;SDS011;50749;51.636;4.948;2022-08-19T04:06:25;5.82;;;3.30;;
59189;SDS011;50749;51.636;4.948;2022-08-19T04:08:54;5.97;;;3.53;;
59189;SDS011;50749;51.636;4.948;2022-08-19T04:11:25;6.03;;;3.53;;
59189;SDS011;50749;51.636;4.948;2022-08-19T04:13:54;6.35;;;3.10;;
59189;SDS011;50749;51.636;4.948;2022-08-19T04:16:21;6.13;;;3.50;;
59189;SDS011;50749;51.636;4.948;2022-08-19T04:18:50;5.32;;;3.47;;
59189;SDS011;50749;51.636;4.948;2022-08-19T04:21:20;4.45;;;3.17;;
59189;SDS011;50749;51.636;4.948;2022-08-19T04:23:48;6.53;;;3.40;;
59189;SDS011;50749;51.636;4.948;2022-08-19T04:26:14;4.85;;;3.00;;
59189;SDS011;50749;51.636;4.948;2022-08-19T04:28:42;5.75;;;3.65;;
59189;SDS011;50749;51.636;4.948;2022-08-19T04:31:13;5.00;;;3.17;;
59189;SDS011;50749;51.636;4.948;2022-08-19T04:33:40;5.43;;;3.25;;
59189;SDS011;50749;51.636;4.948;2022-08-19T04:36:06;6.47;;;3.88;;
59189;SDS011;50749;51.636;4.948;2022-08-19T04:38:33;6.72;;;3.17;;
59189;SDS011;50749;51.636;4.948;2022-08-19T04:40:59;5.22;;;3.53;;
59189;SDS011;50749;51.636;4.948;2022-08-19T04:43:44;5.82;;;3.58;;
59189;SDS011;50749;51.636;4.948;2022-08-19T04:46:13;5.18;;;3.35;;
59189;SDS011;50749;51.636;4.948;2022-08-19T04:48:39;5.80;;;3.35;;
59189;SDS011;50749;51.636;4.948;2022-08-19T04:51:06;5.45;;;3.45;;
59189;SDS011;50749;51.636;4.948;2022-08-19T04:53:36;4.75;;;3.40;;
59189;SDS011;50749;51.636;4.948;2022-08-19T04:56:07;3.90;;;2.50;;
59189;SDS011;50749;51.636;4.948;2022-08-19T04:58:35;6.28;;;3.50;;
59189;SDS011;50749;51.636;4.948;2022-08-19T05:01:03;6.55;;;3.53;;
59189;SDS011;50749;51.636;4.948;2022-08-19T05:03:29;5.50;;;3.22;;
59189;SDS011;50749;51.636;4.948;2022-08-19T05:06:03;5.28;;;3.50;;
59189;SDS011;50749;51.636;4.948;2022-08-19T05:11:01;6.25;;;3.60;;
59189;SDS011;50749;51.636;4.948;2022-08-19T05:13:32;5.10;;;3.08;;
59189;SDS011;50749;51.636;4.948;2022-08-19T05:15:58;4.63;;;3.38;;
59189;SDS011;50749;51.636;4.948;2022-08-19T05:18:24;4.85;;;3.15;;
59189;SDS011;50749;51.636;4.948;2022-08-19T05:21:09;5.78;;;3.35;;
59189;SDS011;50749;51.636;4.948;2022-08-19T05:23:58;5.78;;;3.20;;
59189;SDS011;50749;51.636;4.948;2022-08-19T05:26:24;4.43;;;3.05;;
59189;SDS011;50749;51.636;4.948;2022-08-19T05:28:54;4.95;;;3.40;;
59189;SDS011;50749;51.636;4.948;2022-08-19T05:31:21;6.15;;;3.53;;
59189;SDS011;50749;51.636;4.948;2022-08-19T05:33:46;3.83;;;2.75;;
59189;SDS011;50749;51.636;4.948;2022-08-19T05:36:12;4.15;;;2.65;;
59189;SDS011;50749;51.636;4.948;2022-08-19T05:38:39;5.38;;;3.30;;
59189;SDS011;50749;51.636;4.948;2022-08-19T05:41:06;5.22;;;3.13;;
59189;SDS011;50749;51.636;4.948;2022-08-19T05:43:36;6.75;;;3.72;;
59189;SDS011;50749;51.636;4.948;2022-08-19T05:46:03;6.43;;;3.00;;
59189;SDS011;50749;51.636;4.948;2022-08-19T05:48:31;6.47;;;3.15;;
59189;SDS011;50749;51.636;4.948;2022-08-19T05:50:58;3.72;;;2.53;;
59189;SDS011;50749;51.636;4.948;2022-08-19T05:53:28;5.15;;;3.15;;
59189;SDS011;50749;51.636;4.948;2022-08-19T05:55:54;5.95;;;3.28;;
59189;SDS011;50749;51.636;4.948;2022-08-19T05:58:19;5.20;;;3.03;;
59189;SDS011;50749;51.636;4.948;2022-08-19T06:00:45;4.35;;;2.85;;
59189;SDS011;50749;51.636;4.948;2022-08-19T06:03:11;4.78;;;3.47;;
59189;SDS011;50749;51.636;4.948;2022-08-19T06:05:37;6.70;;;3.20;;
59189;SDS011;50749;51.636;4.948;2022-08-19T06:08:03;6.57;;;3.10;;
59189;SDS011;50749;51.636;4.948;2022-08-19T06:10:29;4.25;;;2.72;;
59189;SDS011;50749;51.636;4.948;2022-08-19T06:12:55;4.65;;;2.90;;
59189;SDS011;50749;51.636;4.948;2022-08-19T06:15:21;4.75;;;2.80;;
59189;SDS011;50749;51.636;4.948;2022-08-19T06:17:50;4.93;;;3.35;;
59189;SDS011;50749;51.636;4.948;2022-08-19T06:20:16;4.90;;;2.60;;
59189;SDS011;50749;51.636;4.948;2022-08-19T06:22:44;4.47;;;2.88;;
59189;SDS011;50749;51.636;4.948;2022-08-19T06:25:11;4.57;;;2.88;;
59189;SDS011;50749;51.636;4.948;2022-08-19T06:27:39;5.05;;;2.80;;
59189;SDS011;50749;51.636;4.948;2022-08-19T06:30:06;4.78;;;3.05;;
59189;SDS011;50749;51.636;4.948;2022-08-19T06:32:32;4.35;;;2.78;;
59189;SDS011;50749;51.636;4.948;2022-08-19T06:34:58;4.07;;;2.75;;
59189;SDS011;50749;51.636;4.948;2022-08-19T06:37:23;5.28;;;3.08;;
59189;SDS011;50749;51.636;4.948;2022-08-19T06:39:50;4.25;;;2.60;;
59189;SDS011;50749;51.636;4.948;2022-08-19T06:42:15;13.10;;;6.95;;
59189;SDS011;50749;51.636;4.948;2022-08-19T06:44:45;15.18;;;9.07;;
59189;SDS011;50749;51.636;4.948;2022-08-19T06:47:18;16.08;;;9.18;;
59189;SDS011;50749;51.636;4.948;2022-08-19T06:49:45;20.33;;;12.25;;
59189;SDS011;50749;51.636;4.948;2022-08-19T06:52:11;19.10;;;12.07;;
59189;SDS011;50749;51.636;4.948;2022-08-19T06:54:37;16.80;;;9.95;;
59189;SDS011;50749;51.636;4.948;2022-08-19T06:57:04;15.32;;;8.32;;
59189;SDS011;50749;51.636;4.948;2022-08-19T06:59:32;15.85;;;9.85;;
59189;SDS011;50749;51.636;4.948;2022-08-19T07:02:00;16.00;;;9.40;;
59189;SDS011;50749;51.636;4.948;2022-08-19T07:04:30;21.85;;;10.80;;
59189;SDS011;50749;51.636;4.948;2022-08-19T07:07:00;21.08;;;11.18;;
59189;SDS011;50749;51.636;4.948;2022-08-19T07:09:31;18.08;;;9.07;;
59189;SDS011;50749;51.636;4.948;2022-08-19T07:11:57;20.60;;;10.80;;
59189;SDS011;50749;51.636;4.948;2022-08-19T07:14:24;18.15;;;11.23;;
59189;SDS011;50749;51.636;4.948;2022-08-19T07:16:53;20.27;;;10.65;;
59189;SDS011;50749;51.636;4.948;2022-08-19T07:19:21;18.35;;;11.20;;
59189;SDS011;50749;51.636;4.948;2022-08-19T07:21:50;23.45;;;11.48;;
59189;SDS011;50749;51.636;4.948;2022-08-19T07:24:20;19.42;;;11.35;;
59189;SDS011;50749;51.636;4.948;2022-08-19T07:26:49;19.48;;;11.30;;
59189;SDS011;50749;51.636;4.948;2022-08-19T07:29:17;19.90;;;11.45;;
59189;SDS011;50749;51.636;4.948;2022-08-19T07:31:43;23.42;;;11.38;;
59189;SDS011;50749;51.636;4.948;2022-08-19T07:34:09;17.95;;;11.10;;
59189;SDS011;50749;51.636;4.948;2022-08-19T07:36:40;21.80;;;12.00;;
59189;SDS011;50749;51.636;4.948;2022-08-19T07:39:12;21.38;;;10.68;;
59189;SDS011;50749;51.636;4.948;2022-08-19T07:41:50;23.25;;;11.55;;
59189;SDS011;50749;51.636;4.948;2022-08-19T07:44:17;23.55;;;11.43;;
59189;SDS011;50749;51.636;4.948;2022-08-19T07:46:46;19.55;;;11.20;;
59189;SDS011;50749;51.636;4.948;2022-08-19T07:49:15;21.33;;;11.70;;
59189;SDS011;50749;51.636;4.948;2022-08-19T07:51:45;16.98;;;11.43;;
59189;SDS011;50749;51.636;4.948;2022-08-19T07:54:13;25.52;;;12.65;;
59189;SDS011;50749;51.636;4.948;2022-08-19T07:56:39;24.10;;;11.63;;
59189;SDS011;50749;51.636;4.948;2022-08-19T07:59:05;25.85;;;12.60;;
59189;SDS011;50749;51.636;4.948;2022-08-19T08:01:31;19.02;;;11.38;;
59189;SDS011;50749;51.636;4.948;2022-08-19T08:03:57;19.73;;;11.82;;
59189;SDS011;50749;51.636;4.948;2022-08-19T08:06:41;20.98;;;11.98;;
59189;SDS011;50749;51.636;4.948;2022-08-19T08:09:29;17.92;;;10.88;;
59189;SDS011;50749;51.636;4.948;2022-08-19T08:12:04;18.25;;;11.10;;
59189;SDS011;50749;51.636;4.948;2022-08-19T08:14:39;17.88;;;10.40;;
59189;SDS011;50749;51.636;4.948;2022-08-19T08:17:09;17.08;;;9.68;;
59189;SDS011;50749;51.636;4.948;2022-08-19T08:19:36;18.90;;;10.23;;
59189;SDS011;50749;51.636;4.948;2022-08-19T08:22:02;21.05;;;9.55;;
59189;SDS011;50749;51.636;4.948;2022-08-19T08:24:29;20.60;;;9.77;;
59189;SDS011;50749;51.636;4.948;2022-08-19T08:26:59;16.80;;;9.65;;
59189;SDS011;50749;51.636;4.948;2022-08-19T08:29:28;16.35;;;8.63;;
59189;SDS011;50749;51.636;4.948;2022-08-19T08:31:56;20.17;;;9.75;;
59189;SDS011;50749;51.636;4.948;2022-08-19T08:34:23;16.58;;;9.20;;
59189;SDS011;50749;51.636;4.948;2022-08-19T08:36:48;14.77;;;8.38;;
59189;SDS011;50749;51.636;4.948;2022-08-19T08:39:17;16.27;;;8.10;;
59189;SDS011;50749;51.636;4.948;2022-08-19T08:44:28;15.95;;;9.20;;
59189;SDS011;50749;51.636;4.948;2022-08-19T08:47:06;20.33;;;9.52;;
59189;SDS011;50749;51.636;4.948;2022-08-19T08:52:21;17.38;;;8.30;;
59189;SDS011;50749;51.636;4.948;2022-08-19T08:54:55;16.75;;;9.07;;
59189;SDS011;50749;51.636;4.948;2022-08-19T08:59:49;13.55;;;7.60;;
59189;SDS011;50749;51.636;4.948;2022-08-19T09:02:19;10.43;;;6.63;;
59189;SDS011;50749;51.636;4.948;2022-08-19T09:04:44;11.73;;;6.60;;
59189;SDS011;50749;51.636;4.948;2022-08-19T09:07:20;12.15;;;5.85;;
59189;SDS011;50749;51.636;4.948;2022-08-19T09:10:10;11.95;;;5.70;;
59189;SDS011;50749;51.636;4.948;2022-08-19T09:12:55;11.63;;;5.68;;
59189;SDS011;50749;51.636;4.948;2022-08-19T09:15:32;8.50;;;5.07;;
59189;SDS011;50749;51.636;4.948;2022-08-19T09:20:31;6.70;;;4.57;;
59189;SDS011;50749;51.636;4.948;2022-08-19T09:22:57;11.15;;;4.50;;
59189;SDS011;50749;51.636;4.948;2022-08-19T09:25:23;10.88;;;4.90;;
59189;SDS011;50749;51.636;4.948;2022-08-19T09:27:50;11.80;;;5.57;;
59189;SDS011;50749;51.636;4.948;2022-08-19T09:30:20;9.63;;;5.95;;
59189;SDS011;50749;51.636;4.948;2022-08-19T09:32:49;11.60;;;5.65;;
59189;SDS011;50749;51.636;4.948;2022-08-19T09:35:18;15.00;;;6.78;;
59189;SDS011;50749;51.636;4.948;2022-08-19T09:37:47;9.63;;;5.93;;
59189;SDS011;50749;51.636;4.948;2022-08-19T09:40:14;10.90;;;6.00;;
59189;SDS011;50749;51.636;4.948;2022-08-19T09:42:40;15.50;;;6.45;;
59189;SDS011;50749;51.636;4.948;2022-08-19T09:45:09;13.23;;;6.68;;
59189;SDS011;50749;51.636;4.948;2022-08-19T09:47:35;9.65;;;6.07;;
59189;SDS011;50749;51.636;4.948;2022-08-19T09:50:04;10.60;;;5.55;;
59189;SDS011;50749;51.636;4.948;2022-08-19T09:52:34;11.27;;;6.18;;
59189;SDS011;50749;51.636;4.948;2022-08-19T09:55:03;9.90;;;5.57;;
59189;SDS011;50749;51.636;4.948;2022-08-19T09:57:34;8.90;;;5.47;;
59189;SDS011;50749;51.636;4.948;2022-08-19T10:00:00;15.90;;;6.07;;
59189;SDS011;50749;51.636;4.948;2022-08-19T10:02:27;8.85;;;5.80;;
59189;SDS011;50749;51.636;4.948;2022-08-19T10:04:53;12.77;;;7.13;;
59189;SDS011;50749;51.636;4.948;2022-08-19T10:07:48;11.80;;;6.38;;
59189;SDS011;50749;51.636;4.948;2022-08-19T10:10:15;10.23;;;6.25;;
59189;SDS011;50749;51.636;4.948;2022-08-19T10:12:41;10.50;;;5.70;;
59189;SDS011;50749;51.636;4.948;2022-08-19T10:15:07;7.68;;;5.43;;
59189;SDS011;50749;51.636;4.948;2022-08-19T10:17:33;9.23;;;5.93;;
59189;SDS011;50749;51.636;4.948;2022-08-19T10:20:00;9.80;;;6.53;;
59189;SDS011;50749;51.636;4.948;2022-08-19T10:22:29;8.73;;;5.05;;
59189;SDS011;50749;51.636;4.948;2022-08-19T10:24:55;10.98;;;5.80;;
59189;SDS011;50749;51.636;4.948;2022-08-19T10:27:21;16.02;;;4.78;;
59189;SDS011;50749;51.636;4.948;2022-08-19T10:29:47;7.60;;;4.30;;
59189;SDS011;50749;51.636;4.948;2022-08-19T10:32:13;16.13;;;4.63;;
59189;SDS011;50749;51.636;4.948;2022-08-19T10:34:39;6.60;;;4.68;;
59189;SDS011;50749;51.636;4.948;2022-08-19T10:37:05;11.48;;;4.53;;
59189;SDS011;50749;51.636;4.948;2022-08-19T10:39:32;6.80;;;4.07;;
59189;SDS011;50749;51.636;4.948;2022-08-19T10:42:03;5.85;;;3.85;;
59189;SDS011;50749;51.636;4.948;2022-08-19T10:44:31;30.92;;;6.25;;
59189;SDS011;50749;51.636;4.948;2022-08-19T10:46:58;11.55;;;4.25;;
59189;SDS011;50749;51.636;4.948;2022-08-19T10:49:24;9.30;;;5.20;;
59189;SDS011;50749;51.636;4.948;2022-08-19T10:51:50;9.00;;;4.03;;
59189;SDS011;50749;51.636;4.948;2022-08-19T10:54:34;8.75;;;5.22;;
59189;SDS011;50749;51.636;4.948;2022-08-19T10:57:18;15.75;;;6.30;;
59189;SDS011;50749;51.636;4.948;2022-08-19T10:59:44;12.65;;;4.50;;
59189;SDS011;50749;51.636;4.948;2022-08-19T11:02:11;18.15;;;5.13;;
59189;SDS011;50749;51.636;4.948;2022-08-19T11:04:38;11.30;;;4.07;;
59189;SDS011;50749;51.636;4.948;2022-08-19T11:07:05;6.63;;;3.95;;
59189;SDS011;50749;51.636;4.948;2022-08-19T11:09:31;11.95;;;4.10;;
59189;SDS011;50749;51.636;4.948;2022-08-19T11:12:01;10.00;;;4.05;;
59189;SDS011;50749;51.636;4.948;2022-08-19T11:14:28;10.48;;;4.43;;
59189;SDS011;50749;51.636;4.948;2022-08-19T11:16:56;7.03;;;3.90;;
59189;SDS011;50749;51.636;4.948;2022-08-19T11:19:22;7.88;;;4.28;;
59189;SDS011;50749;51.636;4.948;2022-08-19T11:21:49;8.95;;;4.28;;
59189;SDS011;50749;51.636;4.948;2022-08-19T11:24:17;8.50;;;5.32;;
59189;SDS011;50749;51.636;4.948;2022-08-19T11:26:45;12.55;;;4.75;;
59189;SDS011;50749;51.636;4.948;2022-08-19T11:29:15;9.07;;;5.43;;
59189;SDS011;50749;51.636;4.948;2022-08-19T11:31:46;8.55;;;5.20;;
59189;SDS011;50749;51.636;4.948;2022-08-19T11:34:15;9.90;;;5.82;;
59189;SDS011;50749;51.636;4.948;2022-08-19T11:36:44;11.85;;;6.25;;
59189;SDS011;50749;51.636;4.948;2022-08-19T11:39:14;11.00;;;6.75;;
59189;SDS011;50749;51.636;4.948;2022-08-19T11:41:41;9.88;;;5.65;;
59189;SDS011;50749;51.636;4.948;2022-08-19T11:44:07;12.50;;;5.97;;
59189;SDS011;50749;51.636;4.948;2022-08-19T11:46:33;9.55;;;5.85;;
59189;SDS011;50749;51.636;4.948;2022-08-19T11:49:02;9.85;;;6.00;;
59189;SDS011;50749;51.636;4.948;2022-08-19T11:51:30;12.50;;;5.82;;
59189;SDS011;50749;51.636;4.948;2022-08-19T11:53:57;11.23;;;5.95;;
59189;SDS011;50749;51.636;4.948;2022-08-19T11:56:25;7.47;;;5.50;;
59189;SDS011;50749;51.636;4.948;2022-08-19T11:58:52;9.43;;;5.18;;
59189;SDS011;50749;51.636;4.948;2022-08-19T12:01:18;11.02;;;5.32;;
59189;SDS011;50749;51.636;4.948;2022-08-19T12:03:47;9.48;;;5.32;;
59189;SDS011;50749;51.636;4.948;2022-08-19T12:06:16;9.95;;;5.78;;
59189;SDS011;50749;51.636;4.948;2022-08-19T12:08:45;9.90;;;5.35;;
59189;SDS011;50749;51.636;4.948;2022-08-19T12:11:13;9.02;;;5.22;;
59189;SDS011;50749;51.636;4.948;2022-08-19T12:13:40;8.40;;;5.20;;
59189;SDS011;50749;51.636;4.948;2022-08-19T12:16:15;7.75;;;5.70;;
59189;SDS011;50749;51.636;4.948;2022-08-19T12:18:44;9.30;;;5.80;;
59189;SDS011;50749;51.636;4.948;2022-08-19T12:21:15;9.63;;;5.93;;
59189;SDS011;50749;51.636;4.948;2022-08-19T12:23:47;7.53;;;5.15;;
59189;SDS011;50749;51.636;4.948;2022-08-19T12:26:14;7.57;;;5.45;;
59189;SDS011;50749;51.636;4.948;2022-08-19T12:28:40;8.00;;;5.03;;
59189;SDS011;50749;51.636;4.948;2022-08-19T12:31:06;7.40;;;5.07;;
59189;SDS011;50749;51.636;4.948;2022-08-19T12:33:32;8.65;;;6.03;;
59189;SDS011;50749;51.636;4.948;2022-08-19T12:36:06;6.28;;;5.10;;
59189;SDS011;50749;51.636;4.948;2022-08-19T12:38:34;7.10;;;5.35;;
59189;SDS011;50749;51.636;4.948;2022-08-19T12:41:00;7.25;;;5.25;;
59189;SDS011;50749;51.636;4.948;2022-08-19T12:43:26;8.23;;;5.75;;
59189;SDS011;50749;51.636;4.948;2022-08-19T12:45:52;7.53;;;5.57;;
59189;SDS011;50749;51.636;4.948;2022-08-19T12:48:18;7.20;;;5.57;;
59189;SDS011;50749;51.636;4.948;2022-08-19T12:50:44;9.73;;;5.55;;
59189;SDS011;50749;51.636;4.948;2022-08-19T12:53:11;10.18;;;5.22;;
59189;SDS011;50749;51.636;4.948;2022-08-19T12:55:37;6.22;;;4.90;;
59189;SDS011;50749;51.636;4.948;2022-08-19T12:58:03;7.78;;;5.50;;
59189;SDS011;50749;51.636;4.948;2022-08-19T13:00:29;8.07;;;5.40;;
59189;SDS011;50749;51.636;4.948;2022-08-19T13:02:57;7.32;;;5.35;;
59189;SDS011;50749;51.636;4.948;2022-08-19T13:05:25;6.43;;;4.47;;
59189;SDS011;50749;51.636;4.948;2022-08-19T13:07:55;7.20;;;4.82;;
59189;SDS011;50749;51.636;4.948;2022-08-19T13:10:23;7.05;;;4.40;;
59189;SDS011;50749;51.636;4.948;2022-08-19T13:12:53;6.30;;;4.43;;
59189;SDS011;50749;51.636;4.948;2022-08-19T13:15:19;6.45;;;4.60;;
59189;SDS011;50749;51.636;4.948;2022-08-19T13:17:47;6.20;;;4.25;;
59189;SDS011;50749;51.636;4.948;2022-08-19T13:20:14;6.97;;;4.50;;
59189;SDS011;50749;51.636;4.948;2022-08-19T13:22:42;6.68;;;4.10;;
59189;SDS011;50749;51.636;4.948;2022-08-19T13:25:09;5.05;;;4.22;;
59189;SDS011;50749;51.636;4.948;2022-08-19T13:27:37;5.50;;;4.03;;
59189;SDS011;50749;51.636;4.948;2022-08-19T13:30:04;9.45;;;5.18;;
59189;SDS011;50749;51.636;4.948;2022-08-19T13:32:51;6.65;;;4.85;;
59189;SDS011;50749;51.636;4.948;2022-08-19T13:35:36;5.65;;;4.47;;
59189;SDS011;50749;51.636;4.948;2022-08-19T13:38:08;6.35;;;4.50;;
59189;SDS011;50749;51.636;4.948;2022-08-19T13:40:35;5.82;;;4.47;;
59189;SDS011;50749;51.636;4.948;2022-08-19T13:43:02;5.75;;;4.40;;
59189;SDS011;50749;51.636;4.948;2022-08-19T13:45:30;5.60;;;4.55;;
59189;SDS011;50749;51.636;4.948;2022-08-19T13:48:01;5.93;;;4.47;;
59189;SDS011;50749;51.636;4.948;2022-08-19T13:50:35;5.65;;;4.03;;
59189;SDS011;50749;51.636;4.948;2022-08-19T13:53:06;5.32;;;4.15;;
59189;SDS011;50749;51.636;4.948;2022-08-19T13:55:33;5.30;;;4.22;;
59189;SDS011;50749;51.636;4.948;2022-08-19T13:58:01;5.07;;;4.40;;
59189;SDS011;50749;51.636;4.948;2022-08-19T14:00:30;5.53;;;4.07;;
59189;SDS011;50749;51.636;4.948;2022-08-19T14:02:58;5.78;;;4.40;;
59189;SDS011;50749;51.636;4.948;2022-08-19T14:05:25;6.13;;;4.35;;
59189;SDS011;50749;51.636;4.948;2022-08-19T14:07:53;5.22;;;4.22;;
59189;SDS011;50749;51.636;4.948;2022-08-19T14:10:19;5.78;;;4.03;;
59189;SDS011;50749;51.636;4.948;2022-08-19T14:12:47;5.40;;;3.80;;
59189;SDS011;50749;51.636;4.948;2022-08-19T14:15:13;4.72;;;3.75;;
59189;SDS011;50749;51.636;4.948;2022-08-19T14:17:39;6.07;;;3.97;;
59189;SDS011;50749;51.636;4.948;2022-08-19T14:20:10;4.50;;;3.50;;
59189;SDS011;50749;51.636;4.948;2022-08-19T14:22:37;5.60;;;4.20;;
59189;SDS011;50749;51.636;4.948;2022-08-19T14:25:05;6.15;;;4.20;;
59189;SDS011;50749;51.636;4.948;2022-08-19T14:27:34;5.40;;;4.35;;
59189;SDS011;50749;51.636;4.948;2022-08-19T14:30:00;5.20;;;3.80;;
59189;SDS011;50749;51.636;4.948;2022-08-19T14:32:27;5.82;;;4.07;;
59189;SDS011;50749;51.636;4.948;2022-08-19T14:34:53;5.95;;;4.18;;
59189;SDS011;50749;51.636;4.948;2022-08-19T14:37:19;5.38;;;4.03;;
59189;SDS011;50749;51.636;4.948;2022-08-19T14:39:46;6.07;;;4.30;;
59189;SDS011;50749;51.636;4.948;2022-08-19T14:42:12;6.70;;;4.55;;
59189;SDS011;50749;51.636;4.948;2022-08-19T14:44:39;5.80;;;3.70;;
59189;SDS011;50749;51.636;4.948;2022-08-19T14:47:06;7.95;;;4.38;;
59189;SDS011;50749;51.636;4.948;2022-08-19T14:49:33;6.65;;;4.63;;
59189;SDS011;50749;51.636;4.948;2022-08-19T14:51:59;5.50;;;4.10;;
59189;SDS011;50749;51.636;4.948;2022-08-19T14:54:25;5.10;;;3.42;;
59189;SDS011;50749;51.636;4.948;2022-08-19T14:56:51;6.03;;;3.95;;
59189;SDS011;50749;51.636;4.948;2022-08-19T14:59:16;5.80;;;3.90;;
59189;SDS011;50749;51.636;4.948;2022-08-19T15:01:42;5.13;;;3.85;;
59189;SDS011;50749;51.636;4.948;2022-08-19T15:04:08;5.38;;;3.95;;
59189;SDS011;50749;51.636;4.948;2022-08-19T15:06:34;5.70;;;3.80;;